sensor_id;sensor_type;location;lat;lon;timestamp;temperature;humidity
30336;DHT22;17142;47.990;7.846;2023-08-20T00:00:03;21.60;99.90
30336;DHT22;17142;47.990;7.846;2023-08-20T00:02:32;21.50;99.90
30336;DHT22;17142;47.990;7.846;2023-08-20T00:05:02;21.40;99.90
30336;DHT22;17142;47.990;7.846;2023-08-20T00:07:36;21.40;99.90
30336;DHT22;17142;47.990;7.846;2023-08-20T00:10:02;21.30;99.90
30336;DHT22;17142;47.990;7.846;2023-08-20T00:12:38;21.30;99.90
30336;DHT22;17142;47.990;7.846;2023-08-20T00:15:07;21.30;99.90
30336;DHT22;17142;47.990;7.846;2023-08-20T00:17:46;21.20;99.90
30336;DHT22;17142;47.990;7.846;2023-08-20T00:20:15;21.20;99.90
30336;DHT22;17142;47.990;7.846;2023-08-20T00:22:48;21.10;99.90
30336;DHT22;17142;47.990;7.846;2023-08-20T00:25:14;21.10;99.90
30336;DHT22;17142;47.990;7.846;2023-08-20T00:27:41;21.10;99.90
30336;DHT22;17142;47.990;7.846;2023-08-20T00:30:10;21.10;99.90
30336;DHT22;17142;47.990;7.846;2023-08-20T00:32:36;21.20;99.90
30336;DHT22;17142;47.990;7.846;2023-08-20T00:35:14;21.20;99.90
30336;DHT22;17142;47.990;7.846;2023-08-20T00:37:42;21.20;99.90
30336;DHT22;17142;47.990;7.846;2023-08-20T00:40:10;21.20;99.90
30336;DHT22;17142;47.990;7.846;2023-08-20T00:42:36;21.20;99.90
30336;DHT22;17142;47.990;7.846;2023-08-20T00:45:08;21.20;99.90
30336;DHT22;17142;47.990;7.846;2023-08-20T00:47:43;21.20;99.90
30336;DHT22;17142;47.990;7.846;2023-08-20T00:50:09;21.20;99.90
30336;DHT22;17142;47.990;7.846;2023-08-20T00:52:47;21.10;99.90
30336;DHT22;17142;47.990;7.846;2023-08-20T00:55:19;21.00;99.90
30336;DHT22;17142;47.990;7.846;2023-08-20T00:57:47;21.00;99.90
30336;DHT22;17142;47.990;7.846;2023-08-20T01:00:19;21.00;99.90
30336;DHT22;17142;47.990;7.846;2023-08-20T01:03:02;21.00;99.90
30336;DHT22;17142;47.990;7.846;2023-08-20T01:05:42;21.00;99.90
30336;DHT22;17142;47.990;7.846;2023-08-20T01:08:49;21.00;99.90
30336;DHT22;17142;47.990;7.846;2023-08-20T01:11:45;20.90;99.90
30336;DHT22;17142;47.990;7.846;2023-08-20T01:14:18;20.90;99.90
30336;DHT22;17142;47.990;7.846;2023-08-20T01:16:46;20.80;99.90
30336;DHT22;17142;47.990;7.846;2023-08-20T01:19:29;20.80;99.90
30336;DHT22;17142;47.990;7.846;2023-08-20T01:25:18;20.70;99.90
30336;DHT22;17142;47.990;7.846;2023-08-20T01:28:27;20.60;99.90
30336;DHT22;17142;47.990;7.846;2023-08-20T01:31:00;20.60;99.90
30336;DHT22;17142;47.990;7.846;2023-08-20T01:33:35;20.60;99.90
30336;DHT22;17142;47.990;7.846;2023-08-20T01:36:03;20.50;99.90
30336;DHT22;17142;47.990;7.846;2023-08-20T01:38:35;20.50;99.90
30336;DHT22;17142;47.990;7.846;2023-08-20T01:41:04;20.40;99.90
30336;DHT22;17142;47.990;7.846;2023-08-20T01:43:36;20.40;99.90
30336;DHT22;17142;47.990;7.846;2023-08-20T01:46:08;20.40;99.90
30336;DHT22;17142;47.990;7.846;2023-08-20T01:48:41;20.30;99.90
30336;DHT22;17142;47.990;7.846;2023-08-20T01:51:24;20.20;99.90
30336;DHT22;17142;47.990;7.846;2023-08-20T01:53:55;20.20;99.90
30336;DHT22;17142;47.990;7.846;2023-08-20T01:56:21;20.10;99.90
30336;DHT22;17142;47.990;7.846;2023-08-20T01:58:55;20.10;99.90
30336;DHT22;17142;47.990;7.846;2023-08-20T02:01:23;20.10;99.90
30336;DHT22;17142;47.990;7.846;2023-08-20T02:03:58;20.00;99.90
30336;DHT22;17142;47.990;7.846;2023-08-20T02:06:23;20.00;99.90
30336;DHT22;17142;47.990;7.846;2023-08-20T02:08:53;20.00;99.90
30336;DHT22;17142;47.990;7.846;2023-08-20T02:11:30;20.00;99.90
30336;DHT22;17142;47.990;7.846;2023-08-20T02:13:58;20.10;99.90
30336;DHT22;17142;47.990;7.846;2023-08-20T02:16:30;20.00;99.90
30336;DHT22;17142;47.990;7.846;2023-08-20T02:19:01;19.90;99.90
30336;DHT22;17142;47.990;7.846;2023-08-20T02:21:36;19.90;99.90
30336;DHT22;17142;47.990;7.846;2023-08-20T02:24:07;19.90;99.90
30336;DHT22;17142;47.990;7.846;2023-08-20T02:26:33;20.00;99.90
30336;DHT22;17142;47.990;7.846;2023-08-20T02:28:59;20.20;99.90
30336;DHT22;17142;47.990;7.846;2023-08-20T02:31:27;20.20;99.90
30336;DHT22;17142;47.990;7.846;2023-08-20T02:34:07;20.20;99.90
30336;DHT22;17142;47.990;7.846;2023-08-20T02:37:06;20.10;99.90
30336;DHT22;17142;47.990;7.846;2023-08-20T02:39:36;20.10;99.90
30336;DHT22;17142;47.990;7.846;2023-08-20T02:42:09;20.00;99.90
30336;DHT22;17142;47.990;7.846;2023-08-20T02:44:46;19.90;99.90
30336;DHT22;17142;47.990;7.846;2023-08-20T02:47:14;19.90;99.90
30336;DHT22;17142;47.990;7.846;2023-08-20T02:49:42;19.90;99.90
30336;DHT22;17142;47.990;7.846;2023-08-20T02:52:07;19.90;99.90
30336;DHT22;17142;47.990;7.846;2023-08-20T02:54:42;19.90;99.90
30336;DHT22;17142;47.990;7.846;2023-08-20T02:57:34;19.90;99.90
30336;DHT22;17142;47.990;7.846;2023-08-20T02:59:59;20.00;99.90
30336;DHT22;17142;47.990;7.846;2023-08-20T03:02:28;20.00;99.90
30336;DHT22;17142;47.990;7.846;2023-08-20T03:05:03;20.10;99.90
30336;DHT22;17142;47.990;7.846;2023-08-20T03:07:37;20.20;99.90
30336;DHT22;17142;47.990;7.846;2023-08-20T03:10:03;20.10;99.90
30336;DHT22;17142;47.990;7.846;2023-08-20T03:12:31;20.10;99.90
30336;DHT22;17142;47.990;7.846;2023-08-20T03:15:03;20.10;99.90
30336;DHT22;17142;47.990;7.846;2023-08-20T03:17:42;20.00;99.90
30336;DHT22;17142;47.990;7.846;2023-08-20T03:20:08;20.00;99.90
30336;DHT22;17142;47.990;7.846;2023-08-20T03:22:36;20.00;99.90
30336;DHT22;17142;47.990;7.846;2023-08-20T03:25:09;19.90;99.90
30336;DHT22;17142;47.990;7.846;2023-08-20T03:27:35;19.90;99.90
30336;DHT22;17142;47.990;7.846;2023-08-20T03:30:03;19.70;99.90
30336;DHT22;17142;47.990;7.846;2023-08-20T03:32:32;19.70;99.90
30336;DHT22;17142;47.990;7.846;2023-08-20T03:35:03;19.70;99.90
30336;DHT22;17142;47.990;7.846;2023-08-20T03:37:35;19.70;99.90
30336;DHT22;17142;47.990;7.846;2023-08-20T03:40:07;19.70;99.90
30336;DHT22;17142;47.990;7.846;2023-08-20T03:42:32;19.70;99.90
30336;DHT22;17142;47.990;7.846;2023-08-20T03:45:01;19.80;99.90
30336;DHT22;17142;47.990;7.846;2023-08-20T03:47:33;19.80;99.90
30336;DHT22;17142;47.990;7.846;2023-08-20T03:50:08;19.90;99.90
30336;DHT22;17142;47.990;7.846;2023-08-20T03:52:48;19.90;99.90
30336;DHT22;17142;47.990;7.846;2023-08-20T03:55:14;20.00;99.90
30336;DHT22;17142;47.990;7.846;2023-08-20T03:57:45;20.00;99.90
30336;DHT22;17142;47.990;7.846;2023-08-20T04:00:14;20.00;99.90
30336;DHT22;17142;47.990;7.846;2023-08-20T04:02:40;19.90;99.90
30336;DHT22;17142;47.990;7.846;2023-08-20T04:05:11;19.90;99.90
30336;DHT22;17142;47.990;7.846;2023-08-20T04:07:46;19.90;99.90
30336;DHT22;17142;47.990;7.846;2023-08-20T04:10:12;19.90;99.90
30336;DHT22;17142;47.990;7.846;2023-08-20T04:12:39;20.00;99.90
30336;DHT22;17142;47.990;7.846;2023-08-20T04:15:11;20.10;99.90
30336;DHT22;17142;47.990;7.846;2023-08-20T04:17:43;20.30;99.90
30336;DHT22;17142;47.990;7.846;2023-08-20T04:20:08;20.30;99.90
30336;DHT22;17142;47.990;7.846;2023-08-20T04:22:37;20.50;99.90
30336;DHT22;17142;47.990;7.846;2023-08-20T04:25:03;20.60;99.90
30336;DHT22;17142;47.990;7.846;2023-08-20T04:27:37;20.70;99.90
30336;DHT22;17142;47.990;7.846;2023-08-20T04:30:08;20.60;99.90
30336;DHT22;17142;47.990;7.846;2023-08-20T04:33:05;20.60;99.90
30336;DHT22;17142;47.990;7.846;2023-08-20T04:35:33;20.60;99.90
30336;DHT22;17142;47.990;7.846;2023-08-20T04:38:04;20.60;99.90
30336;DHT22;17142;47.990;7.846;2023-08-20T04:40:36;20.60;99.90
30336;DHT22;17142;47.990;7.846;2023-08-20T04:43:01;20.60;99.90
30336;DHT22;17142;47.990;7.846;2023-08-20T04:45:33;20.70;99.90
30336;DHT22;17142;47.990;7.846;2023-08-20T04:47:59;20.70;99.90
30336;DHT22;17142;47.990;7.846;2023-08-20T04:50:27;20.80;99.90
30336;DHT22;17142;47.990;7.846;2023-08-20T04:52:59;20.80;99.90
30336;DHT22;17142;47.990;7.846;2023-08-20T04:55:27;20.90;99.90
30336;DHT22;17142;47.990;7.846;2023-08-20T04:58:02;21.00;99.90
30336;DHT22;17142;47.990;7.846;2023-08-20T05:00:30;21.10;99.90
30336;DHT22;17142;47.990;7.846;2023-08-20T05:03:06;21.30;99.90
30336;DHT22;17142;47.990;7.846;2023-08-20T05:05:34;21.70;99.90
30336;DHT22;17142;47.990;7.846;2023-08-20T05:08:02;21.90;99.90
30336;DHT22;17142;47.990;7.846;2023-08-20T05:10:36;21.90;99.90
30336;DHT22;17142;47.990;7.846;2023-08-20T05:13:08;21.60;99.90
30336;DHT22;17142;47.990;7.846;2023-08-20T05:15:41;21.50;99.90
30336;DHT22;17142;47.990;7.846;2023-08-20T05:18:12;21.40;99.90
30336;DHT22;17142;47.990;7.846;2023-08-20T05:20:44;21.40;99.90
30336;DHT22;17142;47.990;7.846;2023-08-20T05:23:20;21.50;99.90
30336;DHT22;17142;47.990;7.846;2023-08-20T05:25:50;21.50;99.90
30336;DHT22;17142;47.990;7.846;2023-08-20T05:28:25;21.40;99.90
30336;DHT22;17142;47.990;7.846;2023-08-20T05:30:55;21.50;99.90
30336;DHT22;17142;47.990;7.846;2023-08-20T05:33:21;21.50;99.90
30336;DHT22;17142;47.990;7.846;2023-08-20T05:35:48;21.50;99.90
30336;DHT22;17142;47.990;7.846;2023-08-20T05:38:22;21.50;99.90
30336;DHT22;17142;47.990;7.846;2023-08-20T05:40:54;21.50;99.90
30336;DHT22;17142;47.990;7.846;2023-08-20T05:43:22;21.60;99.90
30336;DHT22;17142;47.990;7.846;2023-08-20T05:45:51;21.60;99.90
30336;DHT22;17142;47.990;7.846;2023-08-20T05:48:16;21.70;99.90
30336;DHT22;17142;47.990;7.846;2023-08-20T05:50:56;22.10;99.90
30336;DHT22;17142;47.990;7.846;2023-08-20T05:53:28;23.20;99.90
30336;DHT22;17142;47.990;7.846;2023-08-20T05:55:53;24.20;99.90
30336;DHT22;17142;47.990;7.846;2023-08-20T05:58:22;24.90;99.90
30336;DHT22;17142;47.990;7.846;2023-08-20T06:00:48;25.00;99.90
30336;DHT22;17142;47.990;7.846;2023-08-20T06:03:21;25.20;99.90
30336;DHT22;17142;47.990;7.846;2023-08-20T06:05:55;25.80;99.90
30336;DHT22;17142;47.990;7.846;2023-08-20T06:08:27;26.80;99.90
30336;DHT22;17142;47.990;7.846;2023-08-20T06:10:53;26.00;99.90
30336;DHT22;17142;47.990;7.846;2023-08-20T06:13:19;25.50;99.90
30336;DHT22;17142;47.990;7.846;2023-08-20T06:15:50;26.40;99.90
30336;DHT22;17142;47.990;7.846;2023-08-20T06:18:16;27.40;99.90
30336;DHT22;17142;47.990;7.846;2023-08-20T06:20:48;27.70;99.90
30336;DHT22;17142;47.990;7.846;2023-08-20T06:23:21;27.90;99.90
30336;DHT22;17142;47.990;7.846;2023-08-20T06:26:00;28.20;99.90
30336;DHT22;17142;47.990;7.846;2023-08-20T06:28:34;28.50;99.90
30336;DHT22;17142;47.990;7.846;2023-08-20T06:30:59;28.30;99.90
30336;DHT22;17142;47.990;7.846;2023-08-20T06:33:25;27.70;99.90
30336;DHT22;17142;47.990;7.846;2023-08-20T06:35:58;27.80;99.90
30336;DHT22;17142;47.990;7.846;2023-08-20T06:38:26;28.50;99.70
30336;DHT22;17142;47.990;7.846;2023-08-20T06:40:52;28.50;98.80
30336;DHT22;17142;47.990;7.846;2023-08-20T06:43:18;28.70;98.80
30336;DHT22;17142;47.990;7.846;2023-08-20T06:45:54;28.60;98.90
30336;DHT22;17142;47.990;7.846;2023-08-20T06:48:22;28.60;98.50
30336;DHT22;17142;47.990;7.846;2023-08-20T06:51:15;28.60;98.60
30336;DHT22;17142;47.990;7.846;2023-08-20T06:53:43;28.30;98.60
30336;DHT22;17142;47.990;7.846;2023-08-20T06:56:08;28.30;98.50
30336;DHT22;17142;47.990;7.846;2023-08-20T06:58:45;28.40;98.50
30336;DHT22;17142;47.990;7.846;2023-08-20T07:01:17;28.80;97.70
30336;DHT22;17142;47.990;7.846;2023-08-20T07:03:51;28.80;97.50
30336;DHT22;17142;47.990;7.846;2023-08-20T07:06:17;29.30;96.80
30336;DHT22;17142;47.990;7.846;2023-08-20T07:08:50;29.50;96.40
30336;DHT22;17142;47.990;7.846;2023-08-20T07:11:24;29.50;95.80
30336;DHT22;17142;47.990;7.846;2023-08-20T07:14:06;29.20;96.50
30336;DHT22;17142;47.990;7.846;2023-08-20T07:16:44;29.60;95.20
30336;DHT22;17142;47.990;7.846;2023-08-20T07:19:15;29.80;94.50
30336;DHT22;17142;47.990;7.846;2023-08-20T07:22:03;30.20;93.40
30336;DHT22;17142;47.990;7.846;2023-08-20T07:24:31;30.60;92.60
30336;DHT22;17142;47.990;7.846;2023-08-20T07:27:05;31.10;92.00
30336;DHT22;17142;47.990;7.846;2023-08-20T07:29:36;31.50;91.40
30336;DHT22;17142;47.990;7.846;2023-08-20T07:32:02;31.60;91.00
30336;DHT22;17142;47.990;7.846;2023-08-20T07:34:29;31.50;90.50
30336;DHT22;17142;47.990;7.846;2023-08-20T07:37:17;31.70;90.60
30336;DHT22;17142;47.990;7.846;2023-08-20T07:39:43;32.40;88.90
30336;DHT22;17142;47.990;7.846;2023-08-20T07:42:08;32.40;87.20
30336;DHT22;17142;47.990;7.846;2023-08-20T07:44:39;31.80;87.50
30336;DHT22;17142;47.990;7.846;2023-08-20T07:47:12;30.80;90.60
30336;DHT22;17142;47.990;7.846;2023-08-20T07:49:38;29.80;92.20
30336;DHT22;17142;47.990;7.846;2023-08-20T07:52:03;30.30;91.80
30336;DHT22;17142;47.990;7.846;2023-08-20T07:54:29;30.50;91.50
30336;DHT22;17142;47.990;7.846;2023-08-20T07:57:02;29.40;93.10
30336;DHT22;17142;47.990;7.846;2023-08-20T07:59:34;29.40;93.20
30336;DHT22;17142;47.990;7.846;2023-08-20T08:02:08;28.90;93.90
30336;DHT22;17142;47.990;7.846;2023-08-20T08:05:09;29.30;93.70
30336;DHT22;17142;47.990;7.846;2023-08-20T08:07:35;30.40;92.30
30336;DHT22;17142;47.990;7.846;2023-08-20T08:10:06;30.30;91.90
30336;DHT22;17142;47.990;7.846;2023-08-20T08:13:00;30.20;92.30
30336;DHT22;17142;47.990;7.846;2023-08-20T08:15:31;30.40;92.10
30336;DHT22;17142;47.990;7.846;2023-08-20T08:17:59;30.70;91.80
30336;DHT22;17142;47.990;7.846;2023-08-20T08:20:24;30.10;92.70
30336;DHT22;17142;47.990;7.846;2023-08-20T08:22:50;30.20;92.60
30336;DHT22;17142;47.990;7.846;2023-08-20T08:25:21;29.80;92.70
30336;DHT22;17142;47.990;7.846;2023-08-20T08:27:47;29.20;93.60
30336;DHT22;17142;47.990;7.846;2023-08-20T08:30:22;29.20;93.80
30336;DHT22;17142;47.990;7.846;2023-08-20T08:32:48;29.70;93.50
30336;DHT22;17142;47.990;7.846;2023-08-20T08:35:19;29.70;93.30
30336;DHT22;17142;47.990;7.846;2023-08-20T08:37:54;30.10;93.10
30336;DHT22;17142;47.990;7.846;2023-08-20T08:40:21;30.60;92.60
30336;DHT22;17142;47.990;7.846;2023-08-20T08:42:52;30.30;92.70
30336;DHT22;17142;47.990;7.846;2023-08-20T08:45:26;30.10;93.10
30336;DHT22;17142;47.990;7.846;2023-08-20T08:47:58;29.00;94.60
30336;DHT22;17142;47.990;7.846;2023-08-20T08:50:25;29.30;94.90
30336;DHT22;17142;47.990;7.846;2023-08-20T08:52:57;29.40;94.90
30336;DHT22;17142;47.990;7.846;2023-08-20T08:55:29;29.70;94.80
30336;DHT22;17142;47.990;7.846;2023-08-20T08:57:55;30.30;93.90
30336;DHT22;17142;47.990;7.846;2023-08-20T09:00:21;30.60;93.30
30336;DHT22;17142;47.990;7.846;2023-08-20T09:02:46;30.40;93.50
30336;DHT22;17142;47.990;7.846;2023-08-20T09:05:15;30.60;93.50
30336;DHT22;17142;47.990;7.846;2023-08-20T09:07:56;30.30;93.30
30336;DHT22;17142;47.990;7.846;2023-08-20T09:10:37;30.10;93.80
30336;DHT22;17142;47.990;7.846;2023-08-20T09:13:03;29.90;93.90
30336;DHT22;17142;47.990;7.846;2023-08-20T09:15:33;29.90;93.70
30336;DHT22;17142;47.990;7.846;2023-08-20T09:18:05;29.90;93.70
30336;DHT22;17142;47.990;7.846;2023-08-20T09:20:39;29.70;94.40
30336;DHT22;17142;47.990;7.846;2023-08-20T09:23:16;30.10;94.00
30336;DHT22;17142;47.990;7.846;2023-08-20T09:25:43;30.50;93.40
30336;DHT22;17142;47.990;7.846;2023-08-20T09:28:19;30.70;92.70
30336;DHT22;17142;47.990;7.846;2023-08-20T09:31:20;31.00;92.70
30336;DHT22;17142;47.990;7.846;2023-08-20T09:33:54;30.10;93.70
30336;DHT22;17142;47.990;7.846;2023-08-20T09:36:31;29.80;94.00
30336;DHT22;17142;47.990;7.846;2023-08-20T09:39:04;29.70;94.60
30336;DHT22;17142;47.990;7.846;2023-08-20T09:41:33;29.80;94.00
30336;DHT22;17142;47.990;7.846;2023-08-20T09:44:08;29.70;94.00
30336;DHT22;17142;47.990;7.846;2023-08-20T09:46:41;29.90;93.90
30336;DHT22;17142;47.990;7.846;2023-08-20T09:49:17;30.40;93.30
30336;DHT22;17142;47.990;7.846;2023-08-20T09:51:54;30.40;93.20
30336;DHT22;17142;47.990;7.846;2023-08-20T09:57:52;30.00;93.70
30336;DHT22;17142;47.990;7.846;2023-08-20T10:00:30;30.40;93.40
30336;DHT22;17142;47.990;7.846;2023-08-20T10:03:08;30.50;92.50
30336;DHT22;17142;47.990;7.846;2023-08-20T10:05:34;30.20;93.30
30336;DHT22;17142;47.990;7.846;2023-08-20T10:08:00;30.10;93.60
30336;DHT22;17142;47.990;7.846;2023-08-20T10:10:26;29.80;93.40
30336;DHT22;17142;47.990;7.846;2023-08-20T10:13:01;30.00;93.10
30336;DHT22;17142;47.990;7.846;2023-08-20T10:15:36;29.80;92.20
30336;DHT22;17142;47.990;7.846;2023-08-20T10:18:10;29.80;92.60
30336;DHT22;17142;47.990;7.846;2023-08-20T10:20:35;30.10;92.40
30336;DHT22;17142;47.990;7.846;2023-08-20T10:23:19;30.10;92.40
30336;DHT22;17142;47.990;7.846;2023-08-20T10:25:45;30.00;93.10
30336;DHT22;17142;47.990;7.846;2023-08-20T10:28:29;29.90;93.60
30336;DHT22;17142;47.990;7.846;2023-08-20T10:31:13;30.00;93.80
30336;DHT22;17142;47.990;7.846;2023-08-20T10:36:26;30.30;93.40
30336;DHT22;17142;47.990;7.846;2023-08-20T10:39:05;30.50;92.80
30336;DHT22;17142;47.990;7.846;2023-08-20T10:41:39;30.50;92.70
30336;DHT22;17142;47.990;7.846;2023-08-20T10:44:07;30.60;92.10
30336;DHT22;17142;47.990;7.846;2023-08-20T10:46:33;30.60;92.60
30336;DHT22;17142;47.990;7.846;2023-08-20T10:49:02;30.60;92.60
30336;DHT22;17142;47.990;7.846;2023-08-20T10:51:36;30.40;92.50
30336;DHT22;17142;47.990;7.846;2023-08-20T10:54:07;30.10;92.70
30336;DHT22;17142;47.990;7.846;2023-08-20T10:56:55;30.40;91.90
30336;DHT22;17142;47.990;7.846;2023-08-20T10:59:33;30.40;91.90
30336;DHT22;17142;47.990;7.846;2023-08-20T11:02:17;30.40;91.60
30336;DHT22;17142;47.990;7.846;2023-08-20T11:04:43;30.00;91.80
30336;DHT22;17142;47.990;7.846;2023-08-20T11:07:20;30.30;91.90
30336;DHT22;17142;47.990;7.846;2023-08-20T11:10:00;30.40;91.00
30336;DHT22;17142;47.990;7.846;2023-08-20T11:12:33;30.40;91.60
30336;DHT22;17142;47.990;7.846;2023-08-20T11:15:10;30.40;91.20
30336;DHT22;17142;47.990;7.846;2023-08-20T11:17:47;30.00;91.80
30336;DHT22;17142;47.990;7.846;2023-08-20T11:20:20;29.90;91.90
30336;DHT22;17142;47.990;7.846;2023-08-20T11:22:48;30.00;90.80
30336;DHT22;17142;47.990;7.846;2023-08-20T11:25:22;30.30;91.00
30336;DHT22;17142;47.990;7.846;2023-08-20T11:27:53;30.60;90.80
30336;DHT22;17142;47.990;7.846;2023-08-20T11:30:19;30.80;90.60
30336;DHT22;17142;47.990;7.846;2023-08-20T11:32:54;31.00;90.30
30336;DHT22;17142;47.990;7.846;2023-08-20T11:35:23;31.30;90.20
30336;DHT22;17142;47.990;7.846;2023-08-20T11:37:49;31.10;89.40
30336;DHT22;17142;47.990;7.846;2023-08-20T11:40:22;31.00;88.50
30336;DHT22;17142;47.990;7.846;2023-08-20T11:43:08;31.10;87.60
30336;DHT22;17142;47.990;7.846;2023-08-20T11:45:53;31.20;89.50
30336;DHT22;17142;47.990;7.846;2023-08-20T11:48:28;31.00;89.10
30336;DHT22;17142;47.990;7.846;2023-08-20T11:50:56;31.20;90.00
30336;DHT22;17142;47.990;7.846;2023-08-20T11:53:28;31.30;88.90
30336;DHT22;17142;47.990;7.846;2023-08-20T11:55:54;31.20;90.70
30336;DHT22;17142;47.990;7.846;2023-08-20T11:58:28;31.10;90.80
30336;DHT22;17142;47.990;7.846;2023-08-20T12:00:56;31.30;90.30
30336;DHT22;17142;47.990;7.846;2023-08-20T12:03:36;31.50;90.40
30336;DHT22;17142;47.990;7.846;2023-08-20T12:06:37;31.20;91.40
30336;DHT22;17142;47.990;7.846;2023-08-20T12:09:30;31.20;91.80
30336;DHT22;17142;47.990;7.846;2023-08-20T12:12:05;31.30;91.30
30336;DHT22;17142;47.990;7.846;2023-08-20T12:14:42;31.30;90.70
30336;DHT22;17142;47.990;7.846;2023-08-20T12:17:18;31.40;90.90
30336;DHT22;17142;47.990;7.846;2023-08-20T12:19:50;31.40;91.20
30336;DHT22;17142;47.990;7.846;2023-08-20T12:22:16;31.40;90.80
30336;DHT22;17142;47.990;7.846;2023-08-20T12:24:41;31.60;90.50
30336;DHT22;17142;47.990;7.846;2023-08-20T12:27:13;31.70;88.90
30336;DHT22;17142;47.990;7.846;2023-08-20T12:29:38;31.60;89.30
30336;DHT22;17142;47.990;7.846;2023-08-20T12:32:10;31.40;89.20
30336;DHT22;17142;47.990;7.846;2023-08-20T12:34:38;31.40;89.50
30336;DHT22;17142;47.990;7.846;2023-08-20T12:37:04;31.40;90.50
30336;DHT22;17142;47.990;7.846;2023-08-20T12:39:30;31.60;90.50
30336;DHT22;17142;47.990;7.846;2023-08-20T12:41:59;31.60;91.00
30336;DHT22;17142;47.990;7.846;2023-08-20T12:44:27;31.60;90.70
30336;DHT22;17142;47.990;7.846;2023-08-20T12:46:53;31.70;90.50
30336;DHT22;17142;47.990;7.846;2023-08-20T12:49:25;31.70;89.40
30336;DHT22;17142;47.990;7.846;2023-08-20T12:51:53;31.80;90.20
30336;DHT22;17142;47.990;7.846;2023-08-20T12:54:22;32.00;88.40
30336;DHT22;17142;47.990;7.846;2023-08-20T12:57:04;31.80;90.30
30336;DHT22;17142;47.990;7.846;2023-08-20T12:59:38;31.40;90.40
30336;DHT22;17142;47.990;7.846;2023-08-20T13:02:10;31.70;88.20
30336;DHT22;17142;47.990;7.846;2023-08-20T13:04:45;31.60;86.00
30336;DHT22;17142;47.990;7.846;2023-08-20T13:07:22;32.10;83.40
30336;DHT22;17142;47.990;7.846;2023-08-20T13:09:48;32.40;84.50
30336;DHT22;17142;47.990;7.846;2023-08-20T13:12:18;32.50;80.90
30336;DHT22;17142;47.990;7.846;2023-08-20T13:14:57;32.50;80.30
30336;DHT22;17142;47.990;7.846;2023-08-20T13:17:29;32.30;81.10
30336;DHT22;17142;47.990;7.846;2023-08-20T13:19:57;32.30;81.00
30336;DHT22;17142;47.990;7.846;2023-08-20T13:22:29;32.30;81.30
30336;DHT22;17142;47.990;7.846;2023-08-20T13:24:55;32.50;83.10
30336;DHT22;17142;47.990;7.846;2023-08-20T13:27:36;32.50;82.30
30336;DHT22;17142;47.990;7.846;2023-08-20T13:30:09;32.10;82.10
30336;DHT22;17142;47.990;7.846;2023-08-20T13:32:43;32.20;82.90
30336;DHT22;17142;47.990;7.846;2023-08-20T13:35:11;32.30;81.20
30336;DHT22;17142;47.990;7.846;2023-08-20T13:37:37;32.50;80.00
30336;DHT22;17142;47.990;7.846;2023-08-20T13:40:11;32.40;80.90
30336;DHT22;17142;47.990;7.846;2023-08-20T13:42:40;32.30;81.30
30336;DHT22;17142;47.990;7.846;2023-08-20T13:45:14;32.20;81.90
30336;DHT22;17142;47.990;7.846;2023-08-20T13:47:43;32.30;82.90
30336;DHT22;17142;47.990;7.846;2023-08-20T13:50:18;32.20;84.00
30336;DHT22;17142;47.990;7.846;2023-08-20T13:52:54;31.90;85.10
30336;DHT22;17142;47.990;7.846;2023-08-20T13:55:20;31.70;87.10
30336;DHT22;17142;47.990;7.846;2023-08-20T13:57:55;31.70;86.40
30336;DHT22;17142;47.990;7.846;2023-08-20T14:00:24;31.90;86.30
30336;DHT22;17142;47.990;7.846;2023-08-20T14:02:58;32.00;84.20
30336;DHT22;17142;47.990;7.846;2023-08-20T14:05:30;32.20;84.90
30336;DHT22;17142;47.990;7.846;2023-08-20T14:07:56;32.30;84.90
30336;DHT22;17142;47.990;7.846;2023-08-20T14:10:27;32.60;85.00
30336;DHT22;17142;47.990;7.846;2023-08-20T14:13:11;32.80;84.30
30336;DHT22;17142;47.990;7.846;2023-08-20T14:15:43;32.30;85.90
30336;DHT22;17142;47.990;7.846;2023-08-20T14:18:15;32.20;86.60
30336;DHT22;17142;47.990;7.846;2023-08-20T14:20:43;32.30;87.30
30336;DHT22;17142;47.990;7.846;2023-08-20T14:23:09;32.10;87.90
30336;DHT22;17142;47.990;7.846;2023-08-20T14:25:35;31.90;89.30
30336;DHT22;17142;47.990;7.846;2023-08-20T14:28:00;32.40;89.40
30336;DHT22;17142;47.990;7.846;2023-08-20T14:30:28;32.60;87.00
30336;DHT22;17142;47.990;7.846;2023-08-20T14:32:56;32.40;87.10
30336;DHT22;17142;47.990;7.846;2023-08-20T14:35:22;32.10;87.70
30336;DHT22;17142;47.990;7.846;2023-08-20T14:37:54;32.20;87.80
30336;DHT22;17142;47.990;7.846;2023-08-20T14:40:23;32.20;87.60
30336;DHT22;17142;47.990;7.846;2023-08-20T14:42:49;32.10;87.50
30336;DHT22;17142;47.990;7.846;2023-08-20T14:45:17;31.80;88.60
30336;DHT22;17142;47.990;7.846;2023-08-20T14:47:42;31.70;88.70
30336;DHT22;17142;47.990;7.846;2023-08-20T14:50:12;31.80;89.80
30336;DHT22;17142;47.990;7.846;2023-08-20T14:52:44;31.90;90.00
30336;DHT22;17142;47.990;7.846;2023-08-20T14:55:13;31.90;88.70
30336;DHT22;17142;47.990;7.846;2023-08-20T14:57:47;31.90;88.20
30336;DHT22;17142;47.990;7.846;2023-08-20T15:00:15;31.90;88.10
30336;DHT22;17142;47.990;7.846;2023-08-20T15:02:48;32.00;88.00
30336;DHT22;17142;47.990;7.846;2023-08-20T15:05:14;31.80;87.60
30336;DHT22;17142;47.990;7.846;2023-08-20T15:08:02;31.80;87.70
30336;DHT22;17142;47.990;7.846;2023-08-20T15:10:36;32.00;88.20
30336;DHT22;17142;47.990;7.846;2023-08-20T15:13:08;32.20;87.70
30336;DHT22;17142;47.990;7.846;2023-08-20T15:15:36;32.30;87.40
30336;DHT22;17142;47.990;7.846;2023-08-20T15:18:10;32.30;87.00
30336;DHT22;17142;47.990;7.846;2023-08-20T15:20:42;32.50;86.30
30336;DHT22;17142;47.990;7.846;2023-08-20T15:23:10;32.60;84.40
30336;DHT22;17142;47.990;7.846;2023-08-20T15:25:41;32.40;85.10
30336;DHT22;17142;47.990;7.846;2023-08-20T15:28:16;32.20;85.80
30336;DHT22;17142;47.990;7.846;2023-08-20T15:30:42;32.30;84.90
30336;DHT22;17142;47.990;7.846;2023-08-20T15:33:13;32.20;84.80
30336;DHT22;17142;47.990;7.846;2023-08-20T15:35:42;32.30;84.50
30336;DHT22;17142;47.990;7.846;2023-08-20T15:38:17;32.40;85.10
30336;DHT22;17142;47.990;7.846;2023-08-20T15:40:48;32.30;85.40
30336;DHT22;17142;47.990;7.846;2023-08-20T15:43:24;32.40;85.40
30336;DHT22;17142;47.990;7.846;2023-08-20T15:45:58;32.30;85.00
30336;DHT22;17142;47.990;7.846;2023-08-20T15:48:35;32.10;85.30
30336;DHT22;17142;47.990;7.846;2023-08-20T15:51:01;32.00;84.50
30336;DHT22;17142;47.990;7.846;2023-08-20T15:53:26;32.00;85.40
30336;DHT22;17142;47.990;7.846;2023-08-20T15:55:58;31.90;86.60
30336;DHT22;17142;47.990;7.846;2023-08-20T15:58:32;31.60;87.40
30336;DHT22;17142;47.990;7.846;2023-08-20T16:01:09;31.60;87.20
30336;DHT22;17142;47.990;7.846;2023-08-20T16:03:43;31.70;87.40
30336;DHT22;17142;47.990;7.846;2023-08-20T16:06:15;31.50;87.50
30336;DHT22;17142;47.990;7.846;2023-08-20T16:08:41;31.60;87.10